Observations for STAVERTON PRIVATE, United Kingdom (EGBJ)

EGBJ 130850Z 10010KT 9999 FEW015 03/00 Q1015
EGBJ 130820Z 10009KT 9999 FEW020 SCT038 03/00 Q1015 
EGBJ 130750Z 10009KT 9000 FEW010 BKN025 03/00 Q1015 
EGBJ 121720Z 12005KT 070V160 9999 FEW022 SCT030 06/01 Q1018 
EGBJ 121650Z 12013KT 9999 FEW025 SCT035 07/01 Q1018 
EGBJ 121620Z 12012KT 9999 FEW025 SCT035 07/02 Q1018 
EGBJ 121550Z 14008KT 9999 FEW028 SCT035 BKN045 08/03 Q1019  
EGBJ 121520Z 14009KT 9999 FEW025 BKN032 08/03 Q1019 
EGBJ 121450Z 15010KT 9999 FEW022 BKN030 08/03 Q1019 
EGBJ 121420Z 14008KT 110V170 9999 FEW022 FEW030TCU SCT032 09/04 Q1019   
EGBJ 121350Z 13010KT 100V160 9999 FEW030 09/05 Q1019
EGBJ 121320Z 13008G18KT 110V190 9999 FEW030 09/05 Q1019 
EGBJ 121250Z 13010KT 9999 FEW018 SCT030 09/05 Q1019 
EGBJ 121220Z 13007KT 090V170 9999 FEW017 SCT025 09/05 Q1020 
EGBJ 121150Z 13006KT 100V160 9999 FEW015 SCT020 08/05 Q1020 
EGBJ 121120Z 15006KT 120V190 9999 FEW020 08/05 Q1020
EGBJ 121050Z 15003KT 9999 FEW018 08/05 Q1021
EGBJ 121020Z 00000KT 9999 FEW040 08/04 Q1021
EGBJ 120950Z 13002KT 9999 FEW014 08/05 Q1021
EGBJ 120920Z 13002KT 9999 FEW014 SCT032 06/05 Q1021 
EGBJ 120850Z 12004KT 100V160 9999 FEW010 06/04 Q1020
EGBJ 120820Z 13006KT 9999 FEW010 06/04 Q1020